createdAt,value
2023-02-22T00:04:51.002Z,17.08
2023-02-22T00:09:52.450Z,16.95
2023-02-22T00:14:54.018Z,17.15
2023-02-22T00:19:55.460Z,17.15
2023-02-22T00:25:17.270Z,16.40
2023-02-22T00:30:20.547Z,16.80
2023-02-22T00:35:23.272Z,18.45
2023-02-22T00:40:25.914Z,16.50
2023-02-22T00:45:28.448Z,17.45
2023-02-22T00:50:30.684Z,18.35
2023-02-22T00:55:33.476Z,16.58
2023-02-22T01:00:38.979Z,15.95
2023-02-22T01:05:40.524Z,16.50
2023-02-22T01:10:42.629Z,16.88
2023-02-22T01:15:45.285Z,16.23
2023-02-22T01:20:48.125Z,18.17
2023-02-22T01:25:49.665Z,17.60
2023-02-22T01:30:51.238Z,18.25
2023-02-22T01:35:52.746Z,18.08
2023-02-22T01:40:54.320Z,17.00
2023-02-22T01:46:03.082Z,17.15
2023-02-22T01:51:10.767Z,17.83
2023-02-22T01:56:12.698Z,16.38
2023-02-22T02:01:14.633Z,18.65
2023-02-22T02:06:16.825Z,19.13
2023-02-22T02:11:20.661Z,17.33
2023-02-22T02:16:23.753Z,18.95
2023-02-22T02:21:32.071Z,19.00
2023-02-22T02:26:51.683Z,19.33
2023-02-22T02:31:55.995Z,19.48
2023-02-22T02:37:01.215Z,18.27
2023-02-22T02:42:06.284Z,16.75
2023-02-22T02:47:13.810Z,17.73
2023-02-22T02:52:16.156Z,18.13
2023-02-22T02:57:17.681Z,17.13
2023-02-22T03:02:28.368Z,17.55
2023-02-22T03:07:48.311Z,17.52
2023-02-22T03:13:12.785Z,16.85
2023-02-22T03:18:22.899Z,15.07
2023-02-22T03:23:25.368Z,15.77
2023-02-22T03:28:27.984Z,15.93
2023-02-22T03:33:58.689Z,14.45
2023-02-22T03:39:01.176Z,14.52
2023-02-22T03:44:08.327Z,16.48
2023-02-22T03:49:12.123Z,18.33
2023-02-22T03:54:16.609Z,15.82
2023-02-22T03:59:18.363Z,17.05
2023-02-22T04:04:21.400Z,17.13
2023-02-22T04:14:38.390Z,17.65
2023-02-22T04:19:40.688Z,16.55
2023-02-22T04:24:42.141Z,16.27
2023-02-22T04:29:43.669Z,17.48
2023-02-22T04:34:45.188Z,16.63
2023-02-22T04:39:46.690Z,16.98
2023-02-22T04:44:48.240Z,17.90
2023-02-22T04:49:49.680Z,16.70
2023-02-22T04:54:51.152Z,16.40
2023-02-22T04:59:52.866Z,17.30
2023-02-22T05:04:54.297Z,19.20
2023-02-22T05:09:55.811Z,19.52
2023-02-22T05:14:57.244Z,17.00
2023-02-22T05:19:58.693Z,16.77
2023-02-22T05:25:00.174Z,17.02
2023-02-22T05:30:01.572Z,16.35
2023-02-22T05:35:03.036Z,16.35
2023-02-22T05:40:04.686Z,17.80
2023-02-22T05:45:06.566Z,16.13
2023-02-22T05:50:08.462Z,17.55
2023-02-22T05:55:10.446Z,14.88
2023-02-22T06:00:16.547Z,15.57
2023-02-22T06:05:18.145Z,15.15
2023-02-22T06:10:20.177Z,15.07
2023-02-22T06:15:22.089Z,15.65
2023-02-22T06:20:24.597Z,15.68
2023-02-22T06:25:27.224Z,15.27
2023-02-22T06:30:29.635Z,16.90
2023-02-22T06:35:31.196Z,15.10
2023-02-22T06:40:32.634Z,15.52
2023-02-22T06:45:34.104Z,18.05
2023-02-22T06:50:36.010Z,18.23
2023-02-22T06:55:37.658Z,19.88
2023-02-22T07:00:39.142Z,16.40
2023-02-22T07:05:40.569Z,17.90
2023-02-22T07:10:42.008Z,17.85
2023-02-22T07:15:43.481Z,17.90
2023-02-22T07:20:45.130Z,18.48
2023-02-22T07:25:46.621Z,19.45
2023-02-22T07:30:48.082Z,20.98
2023-02-22T07:35:50.593Z,19.05
2023-02-22T07:40:52.116Z,19.05
2023-02-22T07:45:55.338Z,20.40
2023-02-22T07:50:57.202Z,20.30
2023-02-22T07:55:59.306Z,19.67
2023-02-22T08:01:03.864Z,19.35
2023-02-22T08:06:06.171Z,20.00
2023-02-22T08:11:07.572Z,21.10
2023-02-22T08:16:09.208Z,21.02
2023-02-22T08:21:10.828Z,20.67
2023-02-22T08:26:20.865Z,22.45
2023-02-22T08:31:22.411Z,21.10
2023-02-22T08:36:23.861Z,19.50
2023-02-22T08:41:25.304Z,20.20
2023-02-22T08:46:26.705Z,19.15
2023-02-22T08:51:28.163Z,20.02
2023-02-22T08:56:30.309Z,23.52
2023-02-22T09:01:33.628Z,21.00
2023-02-22T09:06:35.643Z,20.80
2023-02-22T09:11:37.104Z,22.02
2023-02-22T09:16:38.600Z,20.75
2023-02-22T09:21:40.485Z,19.77
2023-02-22T09:26:47.282Z,19.92
2023-02-22T09:31:49.170Z,22.50
2023-02-22T09:36:50.749Z,18.60
2023-02-22T09:42:03.402Z,20.65
2023-02-22T09:47:04.981Z,19.98
2023-02-22T09:52:16.971Z,20.13
2023-02-22T09:57:21.605Z,21.02
2023-02-22T10:02:35.270Z,20.73
2023-02-22T10:07:40.699Z,18.48
2023-02-22T10:12:53.975Z,19.58
2023-02-22T10:18:14.057Z,20.10
2023-02-22T10:23:18.573Z,20.20
2023-02-22T10:28:39.036Z,19.60
2023-02-22T10:33:42.997Z,20.67
2023-02-22T10:38:48.893Z,18.33
2023-02-22T10:43:50.419Z,18.88
2023-02-22T10:48:54.456Z,20.23
2023-02-22T10:54:09.340Z,19.08
2023-02-22T10:59:10.852Z,20.00
2023-02-22T11:04:13.634Z,20.60
2023-02-22T11:09:22.457Z,22.58
2023-02-22T11:14:31.287Z,22.53
2023-02-22T11:19:33.841Z,22.42
2023-02-22T11:24:49.293Z,20.13
2023-02-22T11:29:51.768Z,21.13
2023-02-22T11:35:13.189Z,20.55
2023-02-22T11:40:18.234Z,21.10
2023-02-22T11:45:23.635Z,20.98
2023-02-22T11:50:28.265Z,20.95
2023-02-22T11:55:42.906Z,21.70
2023-02-22T12:00:49.924Z,20.75
2023-02-22T12:06:09.809Z,23.08
2023-02-22T12:11:12.873Z,21.05
2023-02-22T12:16:26.234Z,21.45
2023-02-22T12:21:29.876Z,19.55
2023-02-22T12:26:34.418Z,21.45
2023-02-22T12:31:53.296Z,21.95
2023-02-22T12:37:01.812Z,20.77
2023-02-22T12:42:04.796Z,19.75
2023-02-22T12:47:07.870Z,19.42
2023-02-22T12:52:28.092Z,18.88
2023-02-22T13:02:43.418Z,18.63
2023-02-22T13:07:54.236Z,19.05
2023-02-22T13:12:57.548Z,18.52
2023-02-22T13:18:17.749Z,19.58
2023-02-22T13:28:24.328Z,20.25
2023-02-22T13:33:32.600Z,18.23
2023-02-22T13:38:52.681Z,19.45
2023-02-22T13:44:14.326Z,20.02
2023-02-22T13:49:27.141Z,19.75
2023-02-22T13:54:37.451Z,18.60
2023-02-22T13:59:40.109Z,18.33
2023-02-22T14:04:41.931Z,19.35
2023-02-22T14:09:48.366Z,18.38
2023-02-22T14:15:18.738Z,20.25
2023-02-22T14:20:36.596Z,18.88
2023-02-22T14:25:40.103Z,19.42
2023-02-22T14:30:41.705Z,19.75
2023-02-22T14:35:49.970Z,19.02
2023-02-22T14:40:52.771Z,20.33
2023-02-22T14:45:56.192Z,18.17
2023-02-22T14:51:02.016Z,17.65
2023-02-22T14:56:11.827Z,17.35
2023-02-22T15:01:20.251Z,19.40
2023-02-22T15:06:23.368Z,18.25
2023-02-22T15:11:31.165Z,16.95
2023-02-22T15:16:34.221Z,16.52
2023-02-22T15:21:35.889Z,16.77
2023-02-22T15:26:52.009Z,17.48
2023-02-22T15:32:00.888Z,18.30
2023-02-22T15:37:18.651Z,17.95
2023-02-22T15:42:21.016Z,17.42
2023-02-22T15:47:24.230Z,18.70
2023-02-22T15:52:26.499Z,17.23
2023-02-22T15:57:29.864Z,17.63
2023-02-22T16:02:39.196Z,17.63
2023-02-22T16:07:50.954Z,17.27
2023-02-22T16:13:05.907Z,18.77
2023-02-22T16:18:18.027Z,17.98
2023-02-22T16:23:24.364Z,17.00
2023-02-22T16:28:27.500Z,17.83
2023-02-22T16:33:34.051Z,18.15
2023-02-22T16:38:38.516Z,18.40
2023-02-22T16:43:40.070Z,17.90
2023-02-22T16:48:44.631Z,18.10
2023-02-22T16:53:46.740Z,18.02
2023-02-22T16:58:49.919Z,17.15
2023-02-22T17:09:09.352Z,17.40
2023-02-22T17:14:11.186Z,17.88
2023-02-22T17:19:17.384Z,18.27
2023-02-22T17:24:22.475Z,19.08
2023-02-22T17:29:24.286Z,21.05
2023-02-22T17:34:25.739Z,20.13
2023-02-22T17:39:27.592Z,22.90
2023-02-22T17:44:30.222Z,24.67
2023-02-22T17:49:31.869Z,24.05
2023-02-22T17:54:34.290Z,25.73
2023-02-22T17:59:35.828Z,25.38
2023-02-22T18:04:39.631Z,25.42
2023-02-22T18:09:42.043Z,25.30
2023-02-22T18:14:43.513Z,27.02
2023-02-22T18:19:44.990Z,26.90
2023-02-22T18:24:46.466Z,27.98
2023-02-22T18:29:47.941Z,29.35
2023-02-22T18:34:49.987Z,29.27
2023-02-22T18:39:51.795Z,30.70
2023-02-22T18:44:54.486Z,28.95
2023-02-22T18:49:56.924Z,32.00
2023-02-22T18:54:59.985Z,30.83
2023-02-22T19:00:01.499Z,28.67
2023-02-22T19:05:03.892Z,27.27
2023-02-22T19:10:06.057Z,28.23
2023-02-22T19:15:08.172Z,27.05
2023-02-22T19:20:10.765Z,29.33
2023-02-22T19:25:12.206Z,27.50
2023-02-22T19:35:28.799Z,27.58
2023-02-22T19:40:30.284Z,28.60
2023-02-22T19:45:31.801Z,27.08
2023-02-22T19:50:33.297Z,26.52
2023-02-22T19:55:36.324Z,26.85
2023-02-22T20:00:37.774Z,28.05
2023-02-22T20:05:40.061Z,29.85
2023-02-22T20:10:41.529Z,27.67
2023-02-22T20:15:43.363Z,27.92
2023-02-22T20:20:44.776Z,28.20
2023-02-22T20:25:53.113Z,28.15
2023-02-22T20:30:54.562Z,26.45
2023-02-22T20:35:55.986Z,29.08
2023-02-22T20:40:57.442Z,29.17
2023-02-22T20:46:02.550Z,32.58
2023-02-22T20:51:07.445Z,29.77
2023-02-22T20:56:12.498Z,31.00
2023-02-22T21:01:17.106Z,30.67
2023-02-22T21:06:21.515Z,28.90
2023-02-22T21:11:23.927Z,29.90
2023-02-22T21:16:29.894Z,30.45
2023-02-22T21:21:31.948Z,30.95
2023-02-22T21:26:34.404Z,30.55
2023-02-22T21:31:36.653Z,34.58
2023-02-22T21:36:38.875Z,31.50
2023-02-22T21:41:40.960Z,32.70
2023-02-22T21:46:42.918Z,31.63
2023-02-22T21:51:45.000Z,31.60
2023-02-22T21:56:46.539Z,30.83
2023-02-22T22:01:50.103Z,31.85
2023-02-22T22:06:52.695Z,31.85
2023-02-22T22:11:58.310Z,29.65
2023-02-22T22:17:00.205Z,30.08
2023-02-22T22:22:02.785Z,29.75
2023-02-22T22:27:06.516Z,30.00
2023-02-22T22:32:09.055Z,31.45
2023-02-22T22:37:10.638Z,30.63
2023-02-22T22:42:13.424Z,30.23
2023-02-22T22:47:14.923Z,31.08
2023-02-22T22:52:16.600Z,29.02
2023-02-22T22:57:18.065Z,28.02
2023-02-22T23:02:20.602Z,28.98
2023-02-22T23:07:22.038Z,28.73
2023-02-22T23:12:31.433Z,27.52
2023-02-22T23:17:41.188Z,25.77
2023-02-22T23:22:46.971Z,29.08
2023-02-22T23:27:49.407Z,25.92
2023-02-22T23:32:50.835Z,28.15
2023-02-22T23:37:58.003Z,24.30
2023-02-22T23:43:04.061Z,27.73
2023-02-22T23:48:05.663Z,24.33
2023-02-22T23:53:07.083Z,25.52
2023-02-22T23:58:08.512Z,25.65
